Time;durP1;ratioP1;P1;durP2;ratioP2;P2;SDS_P1;SDS_P2;PMS_P1;PMS_P2;Temp;Humidity;BMP_temperature;BMP_pressure;BME280_temperature;BME280_humidity;BME280_pressure;Samples;Min_cycle;Max_cycle;Signal;HPM_P1;HPM_P2
2022/11/03 00:07:57;;;;;;;16.47;9.00;;;9.40;99.90;;;;;;4713063;29;20374;-82
2022/11/03 00:32:44;;;;;;;16.17;8.13;;;8.80;99.90;;;;;;4547572;30;20997;-84
2022/11/03 00:58:25;;;;;;;14.60;7.37;;;8.30;99.90;;;;;;4527032;30;20581;-84
2022/11/03 01:18:50;;;;;;;12.67;5.87;;;8.20;99.90;;;;;;4625128;30;20540;-83
2022/11/03 01:48:49;;;;;;;11.13;6.57;;;7.90;99.90;;;;;;4620770;30;20642;-82
2022/11/03 02:39:58;;;;;;;15.27;8.10;;;7.40;99.90;;;;;;4710037;29;20216;-81
2022/11/03 03:10:10;;;;;;;14.27;10.07;;;7.10;99.90;;;;;;4695597;29;20410;-81
2022/11/03 03:35:33;;;;;;;23.90;12.50;;;7.20;99.90;;;;;;4753141;29;20596;-83
2022/11/03 03:55:53;;;;;;;19.27;11.77;;;6.90;99.90;;;;;;4684603;29;20620;-83
2022/11/03 04:25:56;;;;;;;19.67;12.27;;;6.50;99.90;;;;;;4667098;29;20537;-82
2022/11/03 04:46:34;;;;;;;19.23;13.20;;;6.50;99.90;;;;;;4620584;30;20207;-82
2022/11/03 05:17:07;;;;;;;22.73;14.30;;;6.10;99.90;;;;;;4737693;29;20237;-81
2022/11/03 05:52:32;;;;;;;25.50;16.20;;;6.00;99.90;;;;;;4650510;29;20749;-80
2022/11/03 07:02:41;;;;;;;16.93;11.97;;;7.40;99.90;;;;;;4439800;31;20745;-81
2022/11/03 07:37:44;;;;;;;16.40;11.40;;;8.40;99.90;;;;;;4452226;30;20600;-79
2022/11/03 08:08:40;;;;;;;15.63;9.87;;;9.20;99.20;;;;;;4639564;29;20514;-80
2022/11/03 08:13:00;;;;;;;17.77;9.80;;;9.10;97.40;;;;;;4594713;30;20603;-81
2022/11/03 08:38:45;;;;;;;15.77;9.13;;;9.60;94.70;;;;;;4553194;30;21140;-80
2022/11/03 09:09:21;;;;;;;12.00;7.23;;;9.90;94.50;;;;;;4558742;30;20239;-81
2022/11/03 09:13:51;;;;;;;12.77;6.63;;;10.00;93.70;;;;;;4554808;30;20508;-80
2022/11/03 09:39:46;;;;;;;15.57;8.30;;;10.40;93.40;;;;;;4612958;30;20218;-83
2022/11/03 10:45:54;;;;;;;11.47;4.27;;;11.40;90.40;;;;;;4550612;30;20240;-82
2022/11/03 11:46:38;;;;;;;5.80;2.23;;;12.10;83.50;;;;;;4552682;30;20384;-80
2022/11/03 12:11:42;;;;;;;5.43;2.20;;;12.80;81.10;;;;;;4645747;29;20613;-82
2022/11/03 12:41:48;;;;;;;3.93;1.87;;;13.00;81.00;;;;;;4584225;30;20863;-81
2022/11/03 13:02:28;;;;;;;4.03;2.07;;;13.10;80.00;;;;;;4606306;30;20418;-79
2022/11/03 13:38:14;;;;;;;6.47;1.97;;;13.00;80.20;;;;;;4562589;30;20234;-85
2022/11/03 13:58:35;;;;;;;6.57;2.00;;;12.40;82.30;;;;;;4658327;30;20209;-84
2022/11/03 14:28:22;;;;;;;5.90;2.60;;;11.20;85.50;;;;;;4761067;29;20579;-82
2022/11/03 14:54:11;;;;;;;5.17;2.50;;;10.20;88.00;;;;;;4695483;29;20636;-83
2022/11/03 15:19:13;;;;;;;8.70;5.37;;;8.70;91.90;;;;;;4738904;29;20738;-84
2022/11/03 15:39:42;;;;;;;12.93;4.53;;;7.90;96.90;;;;;;4715059;29;20240;-84
2022/11/03 16:09:48;;;;;;;7.17;3.87;;;6.90;99.90;;;;;;4595859;30;20393;-83
2022/11/03 16:45:50;;;;;;;21.63;9.03;;;6.10;99.90;;;;;;4780673;28;20196;-81
2022/11/03 17:10:54;;;;;;;32.17;18.53;;;6.00;99.90;;;;;;4697448;29;20690;-83
2022/11/03 18:27:25;;;;;;;38.17;23.50;;;5.10;99.90;;;;;;4663933;29;20197;-82
2022/11/03 18:57:41;;;;;;;31.50;22.77;;;4.60;99.90;;;;;;4559226;30;20249;-82
2022/11/03 19:27:32;;;;;;;100.17;59.07;;;4.30;99.90;;;;;;4493769;30;20514;-83
2022/11/03 19:58:33;;;;;;;104.00;60.40;;;4.10;99.90;;;;;;4838477;28;20248;-82
2022/11/03 20:33:31;;;;;;;60.37;34.20;;;3.90;99.90;;;;;;4754096;29;20429;-83
2022/11/03 20:44:11;;;;;;;58.87;36.07;;;5.20;99.90;;;;;;5841758;23;20325;-84
2022/11/03 21:04:19;;;;;;;50.20;31.93;;;4.60;99.90;;;;;;5930468;23;21894;-82
2022/11/03 21:24:40;;;;;;;53.80;34.60;;;3.60;99.90;;;;;;4791501;29;20227;-83
2022/11/03 21:50:02;;;;;;;60.63;41.67;;;3.30;99.90;;;;;;4757424;29;20216;-82
2022/11/03 22:10:19;;;;;;;55.30;33.53;;;3.10;99.90;;;;;;4768495;29;20267;-80
2022/11/03 23:10:42;;;;;;;54.60;33.17;;;2.70;99.90;;;;;;4716155;29;20712;-81
2022/11/03 23:26:27;;;;;;;126.40;63.40;;;2.80;99.90;;;;;;4697586;29;20327;-82
